sensor_id;sensor_type;location;lat;lon;timestamp;temperature;humidity
15717;DHT22;7960;50.908;4.204;2022-09-30T00:01:12;10.20;99.90
15717;DHT22;7960;50.908;4.204;2022-09-30T00:03:39;10.20;99.90
15717;DHT22;7960;50.908;4.204;2022-09-30T00:06:06;10.00;99.90
15717;DHT22;7960;50.908;4.204;2022-09-30T00:08:34;10.00;99.90
15717;DHT22;7960;50.908;4.204;2022-09-30T00:11:02;10.10;99.90
15717;DHT22;7960;50.908;4.204;2022-09-30T00:13:29;10.20;99.90
15717;DHT22;7960;50.908;4.204;2022-09-30T00:15:58;10.40;99.90
15717;DHT22;7960;50.908;4.204;2022-09-30T00:18:26;10.50;99.90
15717;DHT22;7960;50.908;4.204;2022-09-30T00:20:53;10.30;99.90
15717;DHT22;7960;50.908;4.204;2022-09-30T00:23:20;10.10;99.90
15717;DHT22;7960;50.908;4.204;2022-09-30T00:25:47;10.00;99.90
15717;DHT22;7960;50.908;4.204;2022-09-30T00:28:15;10.10;99.90
15717;DHT22;7960;50.908;4.204;2022-09-30T00:30:42;10.20;99.90
15717;DHT22;7960;50.908;4.204;2022-09-30T00:33:10;10.30;99.90
15717;DHT22;7960;50.908;4.204;2022-09-30T00:35:37;10.40;99.90
15717;DHT22;7960;50.908;4.204;2022-09-30T00:38:04;10.40;99.90
15717;DHT22;7960;50.908;4.204;2022-09-30T00:40:31;10.40;99.90
15717;DHT22;7960;50.908;4.204;2022-09-30T00:42:58;10.50;99.90
15717;DHT22;7960;50.908;4.204;2022-09-30T00:45:25;10.40;99.90
15717;DHT22;7960;50.908;4.204;2022-09-30T00:47:54;10.30;99.90
15717;DHT22;7960;50.908;4.204;2022-09-30T00:50:34;10.20;99.90
15717;DHT22;7960;50.908;4.204;2022-09-30T00:53:09;10.20;99.90
15717;DHT22;7960;50.908;4.204;2022-09-30T00:55:47;10.30;99.90
15717;DHT22;7960;50.908;4.204;2022-09-30T00:58:22;10.30;99.90
15717;DHT22;7960;50.908;4.204;2022-09-30T01:00:50;10.30;99.90
15717;DHT22;7960;50.908;4.204;2022-09-30T01:03:18;10.20;99.90
15717;DHT22;7960;50.908;4.204;2022-09-30T01:05:48;10.10;99.90
15717;DHT22;7960;50.908;4.204;2022-09-30T01:08:17;10.00;99.90
15717;DHT22;7960;50.908;4.204;2022-09-30T01:10:45;9.90;99.90
15717;DHT22;7960;50.908;4.204;2022-09-30T01:13:12;9.90;99.90
15717;DHT22;7960;50.908;4.204;2022-09-30T01:15:50;9.90;99.90
15717;DHT22;7960;50.908;4.204;2022-09-30T01:18:26;9.90;99.90
15717;DHT22;7960;50.908;4.204;2022-09-30T01:21:25;9.90;99.90
15717;DHT22;7960;50.908;4.204;2022-09-30T01:24:15;9.90;99.90
15717;DHT22;7960;50.908;4.204;2022-09-30T01:27:11;9.80;99.90
15717;DHT22;7960;50.908;4.204;2022-09-30T01:30:00;9.80;99.90
15717;DHT22;7960;50.908;4.204;2022-09-30T01:32:44;9.90;99.90
15717;DHT22;7960;50.908;4.204;2022-09-30T01:35:22;9.90;99.90
15717;DHT22;7960;50.908;4.204;2022-09-30T01:38:00;9.90;99.90
15717;DHT22;7960;50.908;4.204;2022-09-30T01:40:38;9.80;99.90
15717;DHT22;7960;50.908;4.204;2022-09-30T01:43:09;9.90;99.90
15717;DHT22;7960;50.908;4.204;2022-09-30T01:45:41;9.80;99.90
15717;DHT22;7960;50.908;4.204;2022-09-30T01:48:17;9.90;99.90
15717;DHT22;7960;50.908;4.204;2022-09-30T01:50:49;9.90;99.90
15717;DHT22;7960;50.908;4.204;2022-09-30T01:53:23;9.90;99.90
15717;DHT22;7960;50.908;4.204;2022-09-30T01:55:54;9.90;99.90
15717;DHT22;7960;50.908;4.204;2022-09-30T01:58:28;9.90;99.90
15717;DHT22;7960;50.908;4.204;2022-09-30T02:00:59;9.80;99.90
15717;DHT22;7960;50.908;4.204;2022-09-30T02:03:32;9.90;99.90
15717;DHT22;7960;50.908;4.204;2022-09-30T02:06:02;9.90;99.90
15717;DHT22;7960;50.908;4.204;2022-09-30T02:08:34;9.80;99.90
15717;DHT22;7960;50.908;4.204;2022-09-30T02:11:07;9.80;99.90
15717;DHT22;7960;50.908;4.204;2022-09-30T02:13:37;9.90;99.90
15717;DHT22;7960;50.908;4.204;2022-09-30T02:16:08;9.80;99.90
15717;DHT22;7960;50.908;4.204;2022-09-30T02:18:42;9.80;99.90
15717;DHT22;7960;50.908;4.204;2022-09-30T02:21:13;9.80;99.90
15717;DHT22;7960;50.908;4.204;2022-09-30T02:23:43;9.80;99.90
15717;DHT22;7960;50.908;4.204;2022-09-30T02:26:15;9.80;99.90
15717;DHT22;7960;50.908;4.204;2022-09-30T02:28:46;9.70;99.90
15717;DHT22;7960;50.908;4.204;2022-09-30T02:31:16;9.60;99.90
15717;DHT22;7960;50.908;4.204;2022-09-30T02:33:47;9.50;99.90
15717;DHT22;7960;50.908;4.204;2022-09-30T02:36:20;9.50;99.90
15717;DHT22;7960;50.908;4.204;2022-09-30T02:38:54;9.60;99.90
15717;DHT22;7960;50.908;4.204;2022-09-30T02:41:24;9.50;99.90
15717;DHT22;7960;50.908;4.204;2022-09-30T02:43:53;9.50;99.90
15717;DHT22;7960;50.908;4.204;2022-09-30T02:46:26;9.40;99.90
15717;DHT22;7960;50.908;4.204;2022-09-30T02:49:04;9.40;99.90
15717;DHT22;7960;50.908;4.204;2022-09-30T02:51:38;9.30;99.90
15717;DHT22;7960;50.908;4.204;2022-09-30T02:54:15;9.20;99.90
15717;DHT22;7960;50.908;4.204;2022-09-30T02:56:50;9.20;99.90
15717;DHT22;7960;50.908;4.204;2022-09-30T02:59:20;9.20;99.90
15717;DHT22;7960;50.908;4.204;2022-09-30T03:01:47;9.20;99.90
15717;DHT22;7960;50.908;4.204;2022-09-30T03:04:19;9.20;99.90
15717;DHT22;7960;50.908;4.204;2022-09-30T03:06:47;9.00;99.90
15717;DHT22;7960;50.908;4.204;2022-09-30T03:09:15;9.10;99.90
15717;DHT22;7960;50.908;4.204;2022-09-30T03:11:42;9.10;99.90
15717;DHT22;7960;50.908;4.204;2022-09-30T03:14:41;9.10;99.90
15717;DHT22;7960;50.908;4.204;2022-09-30T03:17:44;8.90;99.90
15717;DHT22;7960;50.908;4.204;2022-09-30T03:20:47;8.90;99.90
15717;DHT22;7960;50.908;4.204;2022-09-30T03:23:38;9.00;99.90
15717;DHT22;7960;50.908;4.204;2022-09-30T03:26:17;8.90;99.90
15717;DHT22;7960;50.908;4.204;2022-09-30T03:28:54;8.90;99.90
15717;DHT22;7960;50.908;4.204;2022-09-30T03:31:29;8.90;99.90
15717;DHT22;7960;50.908;4.204;2022-09-30T03:34:03;8.90;99.90
15717;DHT22;7960;50.908;4.204;2022-09-30T03:36:38;8.90;99.90
15717;DHT22;7960;50.908;4.204;2022-09-30T03:39:15;8.80;99.90
15717;DHT22;7960;50.908;4.204;2022-09-30T03:41:47;8.90;99.90
15717;DHT22;7960;50.908;4.204;2022-09-30T03:44:22;8.90;99.90
15717;DHT22;7960;50.908;4.204;2022-09-30T03:46:52;8.90;99.90
15717;DHT22;7960;50.908;4.204;2022-09-30T03:49:24;8.90;99.90
15717;DHT22;7960;50.908;4.204;2022-09-30T03:51:54;8.90;99.90
15717;DHT22;7960;50.908;4.204;2022-09-30T03:54:22;8.90;99.90
15717;DHT22;7960;50.908;4.204;2022-09-30T03:56:49;8.90;99.90
15717;DHT22;7960;50.908;4.204;2022-09-30T03:59:21;8.80;99.90
15717;DHT22;7960;50.908;4.204;2022-09-30T04:01:48;8.80;99.90
15717;DHT22;7960;50.908;4.204;2022-09-30T04:04:15;8.70;99.90
15717;DHT22;7960;50.908;4.204;2022-09-30T04:06:42;8.70;99.90
15717;DHT22;7960;50.908;4.204;2022-09-30T04:09:11;8.70;99.90
15717;DHT22;7960;50.908;4.204;2022-09-30T04:11:38;8.70;99.90
15717;DHT22;7960;50.908;4.204;2022-09-30T04:14:04;8.70;99.90
15717;DHT22;7960;50.908;4.204;2022-09-30T04:16:32;8.70;99.90
15717;DHT22;7960;50.908;4.204;2022-09-30T04:18:59;8.70;99.90
15717;DHT22;7960;50.908;4.204;2022-09-30T04:21:26;8.60;99.90
15717;DHT22;7960;50.908;4.204;2022-09-30T04:23:54;8.70;99.90
15717;DHT22;7960;50.908;4.204;2022-09-30T04:26:22;8.70;99.90
15717;DHT22;7960;50.908;4.204;2022-09-30T04:28:49;8.60;99.90
15717;DHT22;7960;50.908;4.204;2022-09-30T04:31:17;8.60;99.90
15717;DHT22;7960;50.908;4.204;2022-09-30T04:33:45;8.60;99.90
15717;DHT22;7960;50.908;4.204;2022-09-30T04:36:12;8.70;99.90
15717;DHT22;7960;50.908;4.204;2022-09-30T04:38:39;8.70;99.90
15717;DHT22;7960;50.908;4.204;2022-09-30T04:41:06;8.80;99.90
15717;DHT22;7960;50.908;4.204;2022-09-30T04:43:35;8.80;99.90
15717;DHT22;7960;50.908;4.204;2022-09-30T04:46:01;8.70;99.90
15717;DHT22;7960;50.908;4.204;2022-09-30T04:48:29;8.70;99.90
15717;DHT22;7960;50.908;4.204;2022-09-30T04:50:57;8.70;99.90
15717;DHT22;7960;50.908;4.204;2022-09-30T04:53:25;8.60;99.90
15717;DHT22;7960;50.908;4.204;2022-09-30T04:55:57;8.60;99.90
15717;DHT22;7960;50.908;4.204;2022-09-30T04:58:24;8.60;99.90
15717;DHT22;7960;50.908;4.204;2022-09-30T05:00:59;8.60;99.90
15717;DHT22;7960;50.908;4.204;2022-09-30T05:03:26;8.60;99.90
15717;DHT22;7960;50.908;4.204;2022-09-30T05:05:53;8.50;99.90
15717;DHT22;7960;50.908;4.204;2022-09-30T05:08:20;8.50;99.90
15717;DHT22;7960;50.908;4.204;2022-09-30T05:10:53;8.40;99.90
15717;DHT22;7960;50.908;4.204;2022-09-30T05:13:21;8.40;99.90
15717;DHT22;7960;50.908;4.204;2022-09-30T05:15:48;8.50;99.90
15717;DHT22;7960;50.908;4.204;2022-09-30T05:18:17;8.50;99.90
15717;DHT22;7960;50.908;4.204;2022-09-30T05:20:44;8.50;99.90
15717;DHT22;7960;50.908;4.204;2022-09-30T05:23:11;8.50;99.90
15717;DHT22;7960;50.908;4.204;2022-09-30T05:25:38;8.50;99.90
15717;DHT22;7960;50.908;4.204;2022-09-30T05:28:04;8.50;99.90
15717;DHT22;7960;50.908;4.204;2022-09-30T05:30:32;8.30;99.90
15717;DHT22;7960;50.908;4.204;2022-09-30T05:32:59;8.40;99.90
15717;DHT22;7960;50.908;4.204;2022-09-30T05:35:27;8.40;99.90
15717;DHT22;7960;50.908;4.204;2022-09-30T05:37:54;8.50;99.90
15717;DHT22;7960;50.908;4.204;2022-09-30T05:40:20;8.40;99.90
15717;DHT22;7960;50.908;4.204;2022-09-30T05:42:47;8.50;99.90
15717;DHT22;7960;50.908;4.204;2022-09-30T05:45:14;8.40;99.90
15717;DHT22;7960;50.908;4.204;2022-09-30T05:47:41;8.50;99.90
15717;DHT22;7960;50.908;4.204;2022-09-30T05:50:08;8.40;99.90
15717;DHT22;7960;50.908;4.204;2022-09-30T05:52:36;8.50;99.90
15717;DHT22;7960;50.908;4.204;2022-09-30T05:55:04;8.50;99.90
15717;DHT22;7960;50.908;4.204;2022-09-30T05:57:31;8.30;99.90
15717;DHT22;7960;50.908;4.204;2022-09-30T05:59:57;8.30;99.90
15717;DHT22;7960;50.908;4.204;2022-09-30T06:02:24;8.30;99.90
15717;DHT22;7960;50.908;4.204;2022-09-30T06:04:51;8.20;99.90
15717;DHT22;7960;50.908;4.204;2022-09-30T06:07:18;8.20;99.90
15717;DHT22;7960;50.908;4.204;2022-09-30T06:09:46;8.30;99.90
15717;DHT22;7960;50.908;4.204;2022-09-30T06:12:13;8.10;99.90
15717;DHT22;7960;50.908;4.204;2022-09-30T06:14:41;8.10;99.90
15717;DHT22;7960;50.908;4.204;2022-09-30T06:17:09;8.20;99.90
15717;DHT22;7960;50.908;4.204;2022-09-30T06:19:35;8.10;99.90
15717;DHT22;7960;50.908;4.204;2022-09-30T06:22:02;8.40;99.90
15717;DHT22;7960;50.908;4.204;2022-09-30T06:24:29;8.30;99.90
15717;DHT22;7960;50.908;4.204;2022-09-30T06:26:57;8.30;99.90
15717;DHT22;7960;50.908;4.204;2022-09-30T06:29:24;8.20;99.90
15717;DHT22;7960;50.908;4.204;2022-09-30T06:31:52;8.10;99.90
15717;DHT22;7960;50.908;4.204;2022-09-30T06:34:18;8.20;99.90
15717;DHT22;7960;50.908;4.204;2022-09-30T06:36:45;8.20;99.90
15717;DHT22;7960;50.908;4.204;2022-09-30T06:39:12;8.30;99.90
15717;DHT22;7960;50.908;4.204;2022-09-30T06:41:39;8.40;99.90
15717;DHT22;7960;50.908;4.204;2022-09-30T06:44:09;8.40;99.90
15717;DHT22;7960;50.908;4.204;2022-09-30T06:46:36;8.30;99.90
15717;DHT22;7960;50.908;4.204;2022-09-30T06:49:03;8.40;99.90
15717;DHT22;7960;50.908;4.204;2022-09-30T06:51:32;8.60;99.90
15717;DHT22;7960;50.908;4.204;2022-09-30T06:54:01;8.60;99.90
15717;DHT22;7960;50.908;4.204;2022-09-30T06:56:28;8.70;99.90
15717;DHT22;7960;50.908;4.204;2022-09-30T06:58:56;8.60;99.90
15717;DHT22;7960;50.908;4.204;2022-09-30T07:01:24;8.70;99.90
15717;DHT22;7960;50.908;4.204;2022-09-30T07:03:52;8.80;99.90
15717;DHT22;7960;50.908;4.204;2022-09-30T07:06:22;8.80;99.90
15717;DHT22;7960;50.908;4.204;2022-09-30T07:08:50;8.80;99.90
15717;DHT22;7960;50.908;4.204;2022-09-30T07:11:18;8.90;99.90
15717;DHT22;7960;50.908;4.204;2022-09-30T07:13:46;8.90;99.90
15717;DHT22;7960;50.908;4.204;2022-09-30T07:16:14;8.90;99.90
15717;DHT22;7960;50.908;4.204;2022-09-30T07:18:44;9.00;99.90
15717;DHT22;7960;50.908;4.204;2022-09-30T07:21:11;9.00;99.90
15717;DHT22;7960;50.908;4.204;2022-09-30T07:23:40;9.10;99.90
15717;DHT22;7960;50.908;4.204;2022-09-30T07:26:10;9.20;99.90
15717;DHT22;7960;50.908;4.204;2022-09-30T07:28:37;9.20;99.90
15717;DHT22;7960;50.908;4.204;2022-09-30T07:31:07;9.30;99.90
15717;DHT22;7960;50.908;4.204;2022-09-30T07:33:37;9.40;99.90
15717;DHT22;7960;50.908;4.204;2022-09-30T07:36:07;9.40;99.90
15717;DHT22;7960;50.908;4.204;2022-09-30T07:38:37;9.60;99.90
15717;DHT22;7960;50.908;4.204;2022-09-30T07:41:06;9.60;99.90
15717;DHT22;7960;50.908;4.204;2022-09-30T07:43:35;9.60;99.90
15717;DHT22;7960;50.908;4.204;2022-09-30T07:46:05;9.70;99.90
15717;DHT22;7960;50.908;4.204;2022-09-30T07:48:33;9.70;99.90
15717;DHT22;7960;50.908;4.204;2022-09-30T07:51:19;9.90;99.90
15717;DHT22;7960;50.908;4.204;2022-09-30T07:53:48;9.90;99.90
15717;DHT22;7960;50.908;4.204;2022-09-30T07:56:16;10.00;99.90
15717;DHT22;7960;50.908;4.204;2022-09-30T07:58:44;10.10;99.90
15717;DHT22;7960;50.908;4.204;2022-09-30T08:01:11;10.10;99.90
15717;DHT22;7960;50.908;4.204;2022-09-30T08:03:40;10.10;99.90
15717;DHT22;7960;50.908;4.204;2022-09-30T08:06:11;10.20;99.90
15717;DHT22;7960;50.908;4.204;2022-09-30T08:08:43;10.20;99.90
15717;DHT22;7960;50.908;4.204;2022-09-30T08:11:10;10.30;99.90
15717;DHT22;7960;50.908;4.204;2022-09-30T08:13:37;10.50;99.90
15717;DHT22;7960;50.908;4.204;2022-09-30T08:16:04;10.50;99.90
15717;DHT22;7960;50.908;4.204;2022-09-30T08:18:31;10.60;99.90
15717;DHT22;7960;50.908;4.204;2022-09-30T08:21:01;10.70;99.90
15717;DHT22;7960;50.908;4.204;2022-09-30T08:23:28;10.80;99.90
15717;DHT22;7960;50.908;4.204;2022-09-30T08:26:01;10.90;99.90
15717;DHT22;7960;50.908;4.204;2022-09-30T08:28:29;11.10;99.90
15717;DHT22;7960;50.908;4.204;2022-09-30T08:31:03;11.30;99.90
15717;DHT22;7960;50.908;4.204;2022-09-30T08:33:30;11.40;99.90
15717;DHT22;7960;50.908;4.204;2022-09-30T08:36:01;11.60;99.90
15717;DHT22;7960;50.908;4.204;2022-09-30T08:38:28;11.70;99.90
15717;DHT22;7960;50.908;4.204;2022-09-30T08:41:05;11.90;99.90
15717;DHT22;7960;50.908;4.204;2022-09-30T08:43:37;12.00;99.90
15717;DHT22;7960;50.908;4.204;2022-09-30T08:46:10;12.20;99.90
15717;DHT22;7960;50.908;4.204;2022-09-30T08:48:46;12.40;99.90
15717;DHT22;7960;50.908;4.204;2022-09-30T08:51:25;12.50;99.90
15717;DHT22;7960;50.908;4.204;2022-09-30T08:53:56;12.80;99.90
15717;DHT22;7960;50.908;4.204;2022-09-30T08:56:29;13.00;99.90
15717;DHT22;7960;50.908;4.204;2022-09-30T08:59:00;13.20;99.90
15717;DHT22;7960;50.908;4.204;2022-09-30T09:01:31;13.10;99.90
15717;DHT22;7960;50.908;4.204;2022-09-30T09:04:00;13.30;99.90
15717;DHT22;7960;50.908;4.204;2022-09-30T09:06:32;13.60;99.90
15717;DHT22;7960;50.908;4.204;2022-09-30T09:09:13;13.80;99.90
15717;DHT22;7960;50.908;4.204;2022-09-30T09:11:57;13.90;99.90
15717;DHT22;7960;50.908;4.204;2022-09-30T09:14:38;14.10;99.90
15717;DHT22;7960;50.908;4.204;2022-09-30T09:17:19;14.30;99.90
15717;DHT22;7960;50.908;4.204;2022-09-30T09:19:56;14.20;99.90
15717;DHT22;7960;50.908;4.204;2022-09-30T09:22:26;14.30;99.90
15717;DHT22;7960;50.908;4.204;2022-09-30T09:24:53;14.70;99.90
15717;DHT22;7960;50.908;4.204;2022-09-30T09:27:25;14.90;99.90
15717;DHT22;7960;50.908;4.204;2022-09-30T09:30:03;15.00;99.90
15717;DHT22;7960;50.908;4.204;2022-09-30T09:32:31;15.20;99.90
15717;DHT22;7960;50.908;4.204;2022-09-30T09:35:01;15.20;99.90
15717;DHT22;7960;50.908;4.204;2022-09-30T09:37:39;15.40;99.90
15717;DHT22;7960;50.908;4.204;2022-09-30T09:40:33;15.60;99.90
15717;DHT22;7960;50.908;4.204;2022-09-30T09:43:20;15.70;99.90
15717;DHT22;7960;50.908;4.204;2022-09-30T09:45:53;15.60;99.90
15717;DHT22;7960;50.908;4.204;2022-09-30T09:48:22;15.50;99.90
15717;DHT22;7960;50.908;4.204;2022-09-30T09:50:56;15.50;99.90
15717;DHT22;7960;50.908;4.204;2022-09-30T09:53:47;15.70;99.90
15717;DHT22;7960;50.908;4.204;2022-09-30T09:56:16;15.70;99.90
15717;DHT22;7960;50.908;4.204;2022-09-30T09:59:17;15.60;99.90
15717;DHT22;7960;50.908;4.204;2022-09-30T10:01:46;15.70;99.90
15717;DHT22;7960;50.908;4.204;2022-09-30T10:04:17;15.80;99.90
15717;DHT22;7960;50.908;4.204;2022-09-30T10:06:50;15.90;99.90
15717;DHT22;7960;50.908;4.204;2022-09-30T10:09:29;16.00;99.90
15717;DHT22;7960;50.908;4.204;2022-09-30T10:12:24;16.00;99.90
15717;DHT22;7960;50.908;4.204;2022-09-30T10:14:59;16.10;99.90
15717;DHT22;7960;50.908;4.204;2022-09-30T10:17:29;16.20;99.90
15717;DHT22;7960;50.908;4.204;2022-09-30T10:20:03;16.20;99.90
15717;DHT22;7960;50.908;4.204;2022-09-30T10:22:33;16.20;99.90
15717;DHT22;7960;50.908;4.204;2022-09-30T10:25:19;16.40;99.90
15717;DHT22;7960;50.908;4.204;2022-09-30T10:27:49;16.50;99.90
15717;DHT22;7960;50.908;4.204;2022-09-30T10:30:32;16.20;99.90
15717;DHT22;7960;50.908;4.204;2022-09-30T10:33:00;16.10;99.90
15717;DHT22;7960;50.908;4.204;2022-09-30T10:35:29;16.30;99.90
15717;DHT22;7960;50.908;4.204;2022-09-30T10:37:57;16.50;99.90
15717;DHT22;7960;50.908;4.204;2022-09-30T10:40:27;16.70;99.90
15717;DHT22;7960;50.908;4.204;2022-09-30T10:42:55;16.60;99.90
15717;DHT22;7960;50.908;4.204;2022-09-30T10:45:24;16.60;99.90
15717;DHT22;7960;50.908;4.204;2022-09-30T10:47:57;16.70;99.90
15717;DHT22;7960;50.908;4.204;2022-09-30T10:50:26;16.80;99.90
15717;DHT22;7960;50.908;4.204;2022-09-30T10:52:55;17.00;99.90
15717;DHT22;7960;50.908;4.204;2022-09-30T10:55:30;17.10;99.90
15717;DHT22;7960;50.908;4.204;2022-09-30T10:58:03;17.20;99.90
15717;DHT22;7960;50.908;4.204;2022-09-30T11:00:46;17.20;99.90
15717;DHT22;7960;50.908;4.204;2022-09-30T11:03:19;17.30;99.90
15717;DHT22;7960;50.908;4.204;2022-09-30T11:05:48;17.30;99.90
15717;DHT22;7960;50.908;4.204;2022-09-30T11:08:19;17.20;99.90
15717;DHT22;7960;50.908;4.204;2022-09-30T11:10:52;17.30;99.90
15717;DHT22;7960;50.908;4.204;2022-09-30T11:13:25;17.30;99.90
15717;DHT22;7960;50.908;4.204;2022-09-30T11:16:00;17.10;99.90
15717;DHT22;7960;50.908;4.204;2022-09-30T11:18:34;17.00;99.90
15717;DHT22;7960;50.908;4.204;2022-09-30T11:21:05;17.20;99.90
15717;DHT22;7960;50.908;4.204;2022-09-30T11:23:39;17.00;99.90
15717;DHT22;7960;50.908;4.204;2022-09-30T11:26:15;17.10;99.90
15717;DHT22;7960;50.908;4.204;2022-09-30T11:28:55;17.30;99.90
15717;DHT22;7960;50.908;4.204;2022-09-30T11:31:29;17.50;99.90
15717;DHT22;7960;50.908;4.204;2022-09-30T11:34:17;17.50;99.90
15717;DHT22;7960;50.908;4.204;2022-09-30T11:36:50;17.50;99.90
15717;DHT22;7960;50.908;4.204;2022-09-30T11:39:41;17.50;99.90
15717;DHT22;7960;50.908;4.204;2022-09-30T11:42:15;17.80;99.90
15717;DHT22;7960;50.908;4.204;2022-09-30T11:44:44;17.70;99.90
15717;DHT22;7960;50.908;4.204;2022-09-30T11:47:29;17.60;99.90
15717;DHT22;7960;50.908;4.204;2022-09-30T11:50:17;17.50;99.90
15717;DHT22;7960;50.908;4.204;2022-09-30T11:52:55;17.70;99.90
15717;DHT22;7960;50.908;4.204;2022-09-30T11:55:44;18.10;99.90
15717;DHT22;7960;50.908;4.204;2022-09-30T11:58:18;18.30;99.90
15717;DHT22;7960;50.908;4.204;2022-09-30T12:00:48;18.20;99.90
15717;DHT22;7960;50.908;4.204;2022-09-30T12:03:19;17.90;99.90
15717;DHT22;7960;50.908;4.204;2022-09-30T12:05:53;17.70;99.90
15717;DHT22;7960;50.908;4.204;2022-09-30T12:08:25;17.90;99.90
15717;DHT22;7960;50.908;4.204;2022-09-30T12:10:56;18.20;99.90
15717;DHT22;7960;50.908;4.204;2022-09-30T12:13:28;18.20;99.90
15717;DHT22;7960;50.908;4.204;2022-09-30T12:15:57;18.10;99.90
15717;DHT22;7960;50.908;4.204;2022-09-30T12:18:29;17.80;99.90
15717;DHT22;7960;50.908;4.204;2022-09-30T12:21:00;17.60;99.90
15717;DHT22;7960;50.908;4.204;2022-09-30T12:23:32;17.90;99.90
15717;DHT22;7960;50.908;4.204;2022-09-30T12:26:03;18.20;99.90
15717;DHT22;7960;50.908;4.204;2022-09-30T12:28:32;18.60;99.90
15717;DHT22;7960;50.908;4.204;2022-09-30T12:31:41;18.60;99.90
15717;DHT22;7960;50.908;4.204;2022-09-30T12:34:24;18.40;99.90
15717;DHT22;7960;50.908;4.204;2022-09-30T12:37:16;18.20;99.90
15717;DHT22;7960;50.908;4.204;2022-09-30T12:40:05;18.30;99.90
15717;DHT22;7960;50.908;4.204;2022-09-30T12:42:47;18.50;99.90
15717;DHT22;7960;50.908;4.204;2022-09-30T12:45:51;18.50;99.90
15717;DHT22;7960;50.908;4.204;2022-09-30T12:48:22;18.60;99.90
15717;DHT22;7960;50.908;4.204;2022-09-30T12:55:52;19.40;99.90
15717;DHT22;7960;50.908;4.204;2022-09-30T13:45:16;20.60;98.70
15717;DHT22;7960;50.908;4.204;2022-09-30T13:47:47;20.70;98.70
15717;DHT22;7960;50.908;4.204;2022-09-30T13:50:18;21.00;98.40
15717;DHT22;7960;50.908;4.204;2022-09-30T13:52:48;21.20;97.70
15717;DHT22;7960;50.908;4.204;2022-09-30T13:55:25;20.40;97.20
15717;DHT22;7960;50.908;4.204;2022-09-30T13:58:03;21.00;97.70
15717;DHT22;7960;50.908;4.204;2022-09-30T14:00:44;21.00;97.00
15717;DHT22;7960;50.908;4.204;2022-09-30T14:03:28;21.40;96.00
15717;DHT22;7960;50.908;4.204;2022-09-30T14:06:11;21.40;95.60
15717;DHT22;7960;50.908;4.204;2022-09-30T14:08:54;21.30;94.80
15717;DHT22;7960;50.908;4.204;2022-09-30T14:17:56;20.90;95.10
15717;DHT22;7960;50.908;4.204;2022-09-30T14:20:33;20.40;95.70
15717;DHT22;7960;50.908;4.204;2022-09-30T14:23:12;20.00;96.30
15717;DHT22;7960;50.908;4.204;2022-09-30T14:25:44;20.90;96.20
15717;DHT22;7960;50.908;4.204;2022-09-30T14:28:20;21.40;95.50
15717;DHT22;7960;50.908;4.204;2022-09-30T14:30:59;20.60;95.10
15717;DHT22;7960;50.908;4.204;2022-09-30T14:33:37;20.90;95.80
15717;DHT22;7960;50.908;4.204;2022-09-30T14:36:09;21.30;95.50
15717;DHT22;7960;50.908;4.204;2022-09-30T14:38:37;21.40;95.10
15717;DHT22;7960;50.908;4.204;2022-09-30T14:41:06;21.90;94.80
15717;DHT22;7960;50.908;4.204;2022-09-30T14:43:42;21.80;94.40
15717;DHT22;7960;50.908;4.204;2022-09-30T14:46:22;21.00;94.30
15717;DHT22;7960;50.908;4.204;2022-09-30T14:48:52;20.20;94.40
15717;DHT22;7960;50.908;4.204;2022-09-30T14:51:20;19.80;95.30
15717;DHT22;7960;50.908;4.204;2022-09-30T14:53:53;19.60;96.00
15717;DHT22;7960;50.908;4.204;2022-09-30T14:56:21;20.40;96.20
15717;DHT22;7960;50.908;4.204;2022-09-30T14:58:49;20.70;94.80
15717;DHT22;7960;50.908;4.204;2022-09-30T15:01:18;20.60;94.40
15717;DHT22;7960;50.908;4.204;2022-09-30T15:03:51;20.30;94.50
15717;DHT22;7960;50.908;4.204;2022-09-30T15:06:22;19.60;95.00
15717;DHT22;7960;50.908;4.204;2022-09-30T15:08:52;19.00;95.90
15717;DHT22;7960;50.908;4.204;2022-09-30T15:11:25;18.80;96.40
15717;DHT22;7960;50.908;4.204;2022-09-30T15:13:58;18.90;96.70
15717;DHT22;7960;50.908;4.204;2022-09-30T15:16:29;19.20;96.50
15717;DHT22;7960;50.908;4.204;2022-09-30T15:18:57;19.50;96.10
15717;DHT22;7960;50.908;4.204;2022-09-30T15:21:26;19.20;96.00
15717;DHT22;7960;50.908;4.204;2022-09-30T15:23:55;19.20;96.10
15717;DHT22;7960;50.908;4.204;2022-09-30T15:26:24;19.00;96.00
15717;DHT22;7960;50.908;4.204;2022-09-30T15:28:52;18.60;96.30
15717;DHT22;7960;50.908;4.204;2022-09-30T15:31:23;18.40;96.40
15717;DHT22;7960;50.908;4.204;2022-09-30T15:34:05;18.30;96.70
15717;DHT22;7960;50.908;4.204;2022-09-30T15:36:34;18.10;97.20
15717;DHT22;7960;50.908;4.204;2022-09-30T15:39:02;18.10;97.50
15717;DHT22;7960;50.908;4.204;2022-09-30T15:41:38;17.90;97.60
15717;DHT22;7960;50.908;4.204;2022-09-30T15:44:15;17.90;97.70
15717;DHT22;7960;50.908;4.204;2022-09-30T15:46:59;17.70;97.40
15717;DHT22;7960;50.908;4.204;2022-09-30T15:49:33;17.60;97.50
15717;DHT22;7960;50.908;4.204;2022-09-30T15:52:29;17.50;97.60
15717;DHT22;7960;50.908;4.204;2022-09-30T15:55:02;17.40;97.60
15717;DHT22;7960;50.908;4.204;2022-09-30T15:57:49;17.40;97.70
15717;DHT22;7960;50.908;4.204;2022-09-30T16:00:34;17.20;97.80
15717;DHT22;7960;50.908;4.204;2022-09-30T16:03:18;17.10;98.10
15717;DHT22;7960;50.908;4.204;2022-09-30T16:05:49;17.10;98.70
15717;DHT22;7960;50.908;4.204;2022-09-30T16:08:20;17.10;98.80
15717;DHT22;7960;50.908;4.204;2022-09-30T16:10:50;16.90;98.90
15717;DHT22;7960;50.908;4.204;2022-09-30T16:13:19;16.90;99.30
15717;DHT22;7960;50.908;4.204;2022-09-30T16:15:50;16.90;99.40
15717;DHT22;7960;50.908;4.204;2022-09-30T16:18:22;17.00;99.50
15717;DHT22;7960;50.908;4.204;2022-09-30T16:20:58;16.90;99.60
15717;DHT22;7960;50.908;4.204;2022-09-30T16:23:27;16.90;99.80
15717;DHT22;7960;50.908;4.204;2022-09-30T16:26:18;16.60;99.70
15717;DHT22;7960;50.908;4.204;2022-09-30T16:28:48;16.60;99.90
15717;DHT22;7960;50.908;4.204;2022-09-30T16:31:16;16.60;99.90
15717;DHT22;7960;50.908;4.204;2022-09-30T16:33:45;16.60;99.90
15717;DHT22;7960;50.908;4.204;2022-09-30T16:36:13;16.50;99.90
15717;DHT22;7960;50.908;4.204;2022-09-30T16:38:41;16.40;99.90
15717;DHT22;7960;50.908;4.204;2022-09-30T16:41:10;16.30;99.90
15717;DHT22;7960;50.908;4.204;2022-09-30T16:43:41;16.30;99.90
15717;DHT22;7960;50.908;4.204;2022-09-30T16:46:08;16.20;99.90
15717;DHT22;7960;50.908;4.204;2022-09-30T16:48:35;16.20;99.90
15717;DHT22;7960;50.908;4.204;2022-09-30T16:51:12;16.20;99.90
15717;DHT22;7960;50.908;4.204;2022-09-30T16:53:40;16.10;99.90
15717;DHT22;7960;50.908;4.204;2022-09-30T16:56:13;16.10;99.90
15717;DHT22;7960;50.908;4.204;2022-09-30T16:58:41;16.20;99.90
15717;DHT22;7960;50.908;4.204;2022-09-30T17:01:15;16.00;99.90
15717;DHT22;7960;50.908;4.204;2022-09-30T17:03:44;15.90;99.90
15717;DHT22;7960;50.908;4.204;2022-09-30T17:06:12;15.90;99.90
15717;DHT22;7960;50.908;4.204;2022-09-30T17:08:39;15.90;99.90
15717;DHT22;7960;50.908;4.204;2022-09-30T17:11:06;15.90;99.90
15717;DHT22;7960;50.908;4.204;2022-09-30T17:13:34;15.70;99.90
15717;DHT22;7960;50.908;4.204;2022-09-30T17:16:01;15.70;99.90
15717;DHT22;7960;50.908;4.204;2022-09-30T17:18:29;15.70;99.90
15717;DHT22;7960;50.908;4.204;2022-09-30T17:20:56;15.60;99.90
15717;DHT22;7960;50.908;4.204;2022-09-30T17:23:24;15.60;99.90